Time;durP1;ratioP1;P1;durP2;ratioP2;P2;SDS_P1;SDS_P2;PMS_P1;PMS_P2;Temp;Humidity;BMP_temperature;BMP_pressure;BME280_temperature;BME280_humidity;BME280_pressure;Samples;Min_cycle;Max_cycle;Signal;HPM_P1;HPM_P2
2023/08/24 00:01:20;;;;;;;8.23;2.83;;;15.60;99.90;;;;;;5126583;27;20113;-56
2023/08/24 00:03:46;;;;;;;3.90;3.45;;;15.60;99.90;;;;;;5131259;27;20135;-56
2023/08/24 00:06:12;;;;;;;3.30;2.20;;;15.60;99.90;;;;;;5126525;27;20043;-56
2023/08/24 00:08:38;;;;;;;3.25;2.30;;;15.50;99.90;;;;;;5131296;27;20054;-58
2023/08/24 00:11:04;;;;;;;4.00;2.53;;;15.50;99.90;;;;;;5127479;27;20062;-56
2023/08/24 00:13:30;;;;;;;3.83;2.10;;;15.40;99.90;;;;;;5108572;27;20063;-57
2023/08/24 00:15:56;;;;;;;2.90;2.13;;;15.40;99.90;;;;;;5111147;27;20503;-57
2023/08/24 00:18:22;;;;;;;5.20;2.47;;;15.30;99.90;;;;;;5123999;27;20063;-58
2023/08/24 00:20:48;;;;;;;5.00;2.55;;;15.40;99.90;;;;;;5130479;27;20161;-58
2023/08/24 00:23:14;;;;;;;4.40;2.85;;;15.40;99.90;;;;;;5124749;27;20516;-57
2023/08/24 00:25:43;;;;;;;2.65;2.28;;;15.30;99.90;;;;;;5131325;27;20058;-56
2023/08/24 00:28:08;;;;;;;7.50;2.45;;;15.30;99.90;;;;;;5130262;27;20074;-59
2023/08/24 00:30:35;;;;;;;3.30;1.98;;;15.30;99.90;;;;;;5127677;27;20500;-60
2023/08/24 00:33:04;;;;;;;2.60;1.98;;;15.20;99.90;;;;;;5092695;27;20062;-61
2023/08/24 00:35:30;;;;;;;2.20;1.88;;;15.20;99.90;;;;;;5125909;27;20058;-61
2023/08/24 00:37:56;;;;;;;3.47;2.17;;;15.20;99.90;;;;;;5128229;27;20470;-59
2023/08/24 00:40:22;;;;;;;3.70;2.20;;;15.20;99.90;;;;;;5111474;27;20050;-61
2023/08/24 00:42:47;;;;;;;3.67;2.10;;;15.10;99.90;;;;;;5127311;27;20047;-59
2023/08/24 00:45:13;;;;;;;2.17;2.00;;;15.00;99.90;;;;;;5124860;27;20059;-61
2023/08/24 00:47:41;;;;;;;3.88;1.92;;;15.00;99.90;;;;;;5128291;27;20077;-58
2023/08/24 00:50:08;;;;;;;2.22;1.88;;;15.00;99.90;;;;;;5127860;27;20059;-58
2023/08/24 00:52:35;;;;;;;3.78;2.10;;;15.00;99.90;;;;;;5127095;27;20055;-56
2023/08/24 00:55:05;;;;;;;5.18;2.53;;;15.00;99.90;;;;;;5129499;27;20051;-57
2023/08/24 00:57:32;;;;;;;4.05;1.95;;;15.00;99.90;;;;;;5124401;27;20384;-57
2023/08/24 01:02:28;;;;;;;2.20;1.55;;;15.00;99.90;;;;;;5106876;27;20190;-57
2023/08/24 01:04:54;;;;;;;3.15;1.65;;;15.00;99.90;;;;;;5109193;27;20059;-57
2023/08/24 01:07:20;;;;;;;1.98;1.80;;;15.00;99.90;;;;;;5127301;27;20088;-57
2023/08/24 01:09:47;;;;;;;3.88;2.70;;;15.00;99.90;;;;;;5130813;27;20057;-57
2023/08/24 01:12:18;;;;;;;4.15;2.33;;;15.00;99.90;;;;;;5113513;27;20059;-57
2023/08/24 01:15:03;;;;;;;3.03;2.50;;;15.10;99.90;;;;;;5125963;27;20143;-57
2023/08/24 01:17:30;;;;;;;2.17;1.95;;;15.00;99.90;;;;;;5110765;27;20061;-57
2023/08/24 01:19:58;;;;;;;3.88;2.58;;;15.00;99.90;;;;;;5126103;27;20063;-57
2023/08/24 01:22:27;;;;;;;4.82;2.70;;;15.10;99.90;;;;;;5127378;27;20184;-57
2023/08/24 01:25:03;;;;;;;4.60;3.22;;;15.10;99.90;;;;;;5107872;27;20400;-57
2023/08/24 01:27:30;;;;;;;4.45;2.45;;;15.10;99.90;;;;;;5108860;27;20050;-57
2023/08/24 01:29:56;;;;;;;2.72;2.22;;;15.10;99.90;;;;;;5116569;27;20544;-57
2023/08/24 01:32:22;;;;;;;4.50;3.13;;;15.20;99.90;;;;;;5122565;27;20055;-58
2023/08/24 01:34:48;;;;;;;4.97;3.08;;;15.20;99.90;;;;;;5129547;27;20495;-57
2023/08/24 01:37:14;;;;;;;3.50;2.45;;;15.20;99.90;;;;;;5129499;27;20095;-57
2023/08/24 01:39:50;;;;;;;3.25;2.42;;;15.20;99.90;;;;;;5113920;27;20550;-57
2023/08/24 01:42:21;;;;;;;2.53;2.33;;;15.30;99.90;;;;;;5124726;27;20089;-57
2023/08/24 01:44:54;;;;;;;6.65;2.65;;;15.30;99.90;;;;;;5126977;27;20576;-57
2023/08/24 01:47:23;;;;;;;5.93;2.78;;;15.30;99.90;;;;;;5125196;27;20527;-57
2023/08/24 01:49:48;;;;;;;5.90;3.25;;;15.30;99.90;;;;;;5128568;27;20500;-58
2023/08/24 01:52:15;;;;;;;3.17;2.47;;;15.30;99.90;;;;;;5126250;27;20058;-58
2023/08/24 01:54:40;;;;;;;5.22;2.83;;;15.30;99.90;;;;;;5132137;27;20132;-58
2023/08/24 01:57:06;;;;;;;5.50;2.83;;;15.30;99.90;;;;;;5120039;27;21070;-61
2023/08/24 01:59:32;;;;;;;3.80;2.80;;;15.40;99.90;;;;;;5090176;28;20105;-58
2023/08/24 02:01:58;;;;;;;6.38;3.92;;;15.40;99.90;;;;;;5117356;27;20051;-61
2023/08/24 02:04:23;;;;;;;4.30;3.17;;;15.40;99.90;;;;;;5121022;27;20070;-58
2023/08/24 02:06:49;;;;;;;5.07;3.33;;;15.50;99.90;;;;;;5123208;27;20770;-57
2023/08/24 02:09:15;;;;;;;6.35;3.03;;;15.50;99.90;;;;;;5119870;27;20146;-57
2023/08/24 02:11:40;;;;;;;5.10;3.13;;;15.40;99.90;;;;;;5099371;27;20415;-57
2023/08/24 02:14:06;;;;;;;6.25;3.45;;;15.40;99.90;;;;;;5121155;27;20050;-57
2023/08/24 02:16:32;;;;;;;4.40;3.47;;;15.40;99.90;;;;;;5121380;27;20051;-57
2023/08/24 02:18:58;;;;;;;5.22;3.20;;;15.50;99.90;;;;;;5122237;27;20055;-58
2023/08/24 02:21:23;;;;;;;5.82;3.20;;;15.50;99.90;;;;;;5120474;27;20074;-57
2023/08/24 02:23:49;;;;;;;5.75;3.40;;;15.50;99.90;;;;;;5104256;27;20496;-57
2023/08/24 02:26:15;;;;;;;6.78;3.60;;;15.50;99.90;;;;;;5119701;27;20051;-57
2023/08/24 02:28:40;;;;;;;6.15;3.95;;;15.50;99.90;;;;;;5123008;27;20059;-61
2023/08/24 02:31:06;;;;;;;4.60;4.05;;;15.50;99.90;;;;;;5120889;27;20475;-62
2023/08/24 02:33:32;;;;;;;5.72;3.67;;;15.50;99.90;;;;;;5103107;27;20055;-60
2023/08/24 02:35:58;;;;;;;7.35;4.05;;;15.40;99.90;;;;;;5106564;27;20059;-58
2023/08/24 02:38:24;;;;;;;4.30;3.50;;;15.40;99.90;;;;;;5105482;27;20143;-57
2023/08/24 02:41:03;;;;;;;5.85;3.42;;;15.50;99.90;;;;;;5119393;27;20056;-58
2023/08/24 02:43:28;;;;;;;6.57;4.97;;;15.50;99.90;;;;;;5124243;27;21179;-59
2023/08/24 02:45:54;;;;;;;6.78;5.00;;;15.50;99.90;;;;;;5088294;27;20500;-58
2023/08/24 02:48:20;;;;;;;5.30;4.30;;;15.50;99.90;;;;;;5108932;27;20057;-58
2023/08/24 02:50:47;;;;;;;6.00;3.92;;;15.50;99.90;;;;;;5124791;27;20637;-57
2023/08/24 02:53:13;;;;;;;5.78;4.55;;;15.60;99.90;;;;;;5124454;27;20055;-60
2023/08/24 02:55:39;;;;;;;4.28;3.55;;;15.60;99.90;;;;;;5107644;27;20401;-58
2023/08/24 02:58:05;;;;;;;7.30;5.20;;;15.60;99.90;;;;;;5121609;27;20054;-56
2023/08/24 03:00:30;;;;;;;4.90;3.50;;;15.60;99.90;;;;;;5130199;27;20043;-56
2023/08/24 03:02:56;;;;;;;5.88;3.83;;;15.60;99.90;;;;;;5105775;27;20522;-57
2023/08/24 03:05:22;;;;;;;5.90;3.80;;;15.60;99.90;;;;;;5125444;27;20081;-57
2023/08/24 03:07:47;;;;;;;5.55;4.13;;;15.70;99.90;;;;;;5125552;27;20488;-57
2023/08/24 03:10:13;;;;;;;4.03;3.65;;;15.70;99.90;;;;;;5103422;27;20059;-57
2023/08/24 03:12:39;;;;;;;6.53;4.88;;;15.70;99.90;;;;;;5128303;27;20054;-57
2023/08/24 03:15:05;;;;;;;6.43;4.72;;;15.60;99.90;;;;;;5123097;27;20150;-56
2023/08/24 03:17:31;;;;;;;10.50;5.55;;;15.70;99.90;;;;;;5126942;27;21178;-56
2023/08/24 03:19:57;;;;;;;7.07;4.10;;;15.60;99.90;;;;;;5108332;27;20475;-56
2023/08/24 03:22:22;;;;;;;8.13;4.60;;;15.70;99.90;;;;;;5119531;28;20097;-57
2023/08/24 03:24:48;;;;;;;7.68;4.55;;;15.70;99.90;;;;;;5121868;28;20051;-57
2023/08/24 03:27:13;;;;;;;5.05;4.20;;;15.70;99.90;;;;;;5099672;27;20059;-56
2023/08/24 03:29:39;;;;;;;5.53;4.47;;;15.80;99.90;;;;;;5130173;27;20134;-58
2023/08/24 03:32:05;;;;;;;5.25;4.05;;;15.70;99.90;;;;;;5127245;27;20070;-57
2023/08/24 03:34:31;;;;;;;10.13;5.13;;;15.70;99.90;;;;;;5131376;27;20928;-57
2023/08/24 03:36:56;;;;;;;8.75;4.20;;;15.60;99.90;;;;;;5135597;27;20068;-57
2023/08/24 03:39:22;;;;;;;6.90;4.75;;;15.60;99.90;;;;;;5135536;27;20833;-59
2023/08/24 03:41:48;;;;;;;3.78;3.45;;;15.60;99.90;;;;;;5130574;27;20076;-57
2023/08/24 03:44:13;;;;;;;6.82;4.00;;;15.60;99.90;;;;;;5125415;27;20181;-60
2023/08/24 03:46:39;;;;;;;4.80;3.45;;;15.60;99.90;;;;;;5104318;27;20501;-59
2023/08/24 03:49:05;;;;;;;11.25;5.00;;;15.60;99.90;;;;;;5123750;27;20055;-56
2023/08/24 03:51:30;;;;;;;6.90;4.00;;;15.50;99.90;;;;;;5129466;27;20054;-57
2023/08/24 03:53:56;;;;;;;4.97;3.95;;;15.40;99.90;;;;;;5128810;27;20075;-57
2023/08/24 03:56:22;;;;;;;4.63;3.97;;;15.40;99.90;;;;;;5129117;27;20461;-57
2023/08/24 03:58:47;;;;;;;5.22;3.67;;;15.40;99.90;;;;;;5131720;27;20053;-57
2023/08/24 04:01:13;;;;;;;5.88;3.58;;;15.40;99.90;;;;;;5110887;27;20535;-56
2023/08/24 04:03:39;;;;;;;9.00;4.88;;;15.40;99.90;;;;;;5092364;27;1092884;-58
2023/08/24 04:06:05;;;;;;;5.88;4.22;;;15.50;99.90;;;;;;5107303;27;20062;-58
2023/08/24 04:08:31;;;;;;;8.10;3.78;;;15.50;99.90;;;;;;5130909;27;20189;-57
2023/08/24 04:10:57;;;;;;;7.03;3.80;;;15.50;99.90;;;;;;5132092;27;20307;-56
2023/08/24 04:13:22;;;;;;;4.82;3.92;;;15.50;99.90;;;;;;5128749;27;20055;-61
2023/08/24 04:15:48;;;;;;;7.35;3.92;;;15.50;99.90;;;;;;5133106;27;20055;-60
2023/08/24 04:18:14;;;;;;;7.53;4.47;;;15.50;99.90;;;;;;5125108;27;20062;-61
2023/08/24 04:20:40;;;;;;;5.93;3.80;;;15.50;99.90;;;;;;5112571;27;20112;-62
2023/08/24 04:23:05;;;;;;;7.63;3.83;;;15.50;99.90;;;;;;5118851;27;20115;-61
2023/08/24 04:25:31;;;;;;;6.65;4.00;;;15.60;99.90;;;;;;5137971;27;20820;-59
2023/08/24 04:27:57;;;;;;;5.85;4.47;;;15.50;99.90;;;;;;5130035;27;20138;-62
2023/08/24 04:30:22;;;;;;;8.00;4.00;;;15.40;99.90;;;;;;5130277;27;20051;-59
2023/08/24 04:32:48;;;;;;;4.18;3.80;;;15.30;99.90;;;;;;5139310;27;20054;-60
2023/08/24 04:35:14;;;;;;;7.50;4.18;;;15.30;99.90;;;;;;5135516;27;20499;-59
2023/08/24 04:37:39;;;;;;;5.40;4.10;;;15.30;99.90;;;;;;5133628;27;20054;-60
2023/08/24 04:40:07;;;;;;;4.65;3.92;;;15.30;99.90;;;;;;5123601;27;20527;-61
2023/08/24 04:42:34;;;;;;;5.50;4.03;;;15.40;99.90;;;;;;5128548;27;20488;-62
2023/08/24 04:45:04;;;;;;;6.50;5.00;;;15.40;99.90;;;;;;5124141;27;20054;-57
2023/08/24 04:47:29;;;;;;;6.35;3.55;;;15.40;99.90;;;;;;5128703;27;20123;-58
2023/08/24 04:49:56;;;;;;;7.20;3.85;;;15.40;99.90;;;;;;5098295;27;20666;-58
2023/08/24 04:52:22;;;;;;;4.80;3.13;;;15.40;99.90;;;;;;5128008;27;20059;-57
2023/08/24 04:54:47;;;;;;;4.22;3.78;;;15.40;99.90;;;;;;5127012;27;20055;-58
2023/08/24 04:57:14;;;;;;;14.80;6.15;;;15.40;99.90;;;;;;5121687;27;20445;-57
2023/08/24 04:59:39;;;;;;;8.05;5.18;;;15.50;99.90;;;;;;5125487;27;20146;-57
2023/08/24 05:02:05;;;;;;;5.75;4.82;;;15.50;99.90;;;;;;5104687;27;20141;-58
2023/08/24 05:04:31;;;;;;;6.43;5.45;;;15.50;99.90;;;;;;5127920;27;20066;-57
2023/08/24 05:06:56;;;;;;;6.00;4.38;;;15.50;99.90;;;;;;5107710;27;20512;-57
2023/08/24 05:09:22;;;;;;;6.68;5.47;;;15.50;99.90;;;;;;5085376;27;20081;-57
2023/08/24 05:11:48;;;;;;;8.30;6.10;;;15.60;99.90;;;;;;5123833;27;20727;-57
2023/08/24 05:14:14;;;;;;;24.77;7.30;;;15.60;99.90;;;;;;5121535;27;20063;-56
2023/08/24 05:16:40;;;;;;;9.63;5.93;;;15.70;99.90;;;;;;5136172;27;20054;-57
2023/08/24 05:19:05;;;;;;;7.93;5.90;;;15.70;99.90;;;;;;5125921;27;20055;-57
2023/08/24 05:21:31;;;;;;;8.30;6.18;;;15.80;99.90;;;;;;5128493;27;20062;-57
2023/08/24 05:23:57;;;;;;;8.85;6.60;;;15.80;99.90;;;;;;5126493;27;20450;-57
2023/08/24 05:26:24;;;;;;;11.52;6.95;;;15.90;99.90;;;;;;5122290;27;20055;-57
2023/08/24 05:28:50;;;;;;;10.98;7.05;;;16.00;99.90;;;;;;5104450;27;20078;-57
2023/08/24 05:31:16;;;;;;;8.88;6.30;;;16.00;99.90;;;;;;5110198;27;20042;-56
2023/08/24 05:33:42;;;;;;;14.20;7.00;;;16.10;99.90;;;;;;5129651;27;20475;-57
2023/08/24 05:36:07;;;;;;;13.20;6.32;;;16.20;99.90;;;;;;5130704;27;20096;-55
2023/08/24 05:38:33;;;;;;;10.82;7.30;;;16.20;99.90;;;;;;5126486;27;20515;-56
2023/08/24 05:43:24;;;;;;;10.85;6.55;;;16.20;99.90;;;;;;5117986;27;20059;-56
2023/08/24 05:45:50;;;;;;;11.27;6.97;;;16.20;99.90;;;;;;5102718;27;20531;-57
2023/08/24 05:48:16;;;;;;;8.60;6.57;;;16.30;99.90;;;;;;5124068;27;20598;-58
2023/08/24 05:50:46;;;;;;;8.43;5.30;;;16.30;99.90;;;;;;5127313;27;20141;-57
2023/08/24 05:53:12;;;;;;;10.07;5.85;;;16.30;99.90;;;;;;5106107;27;20059;-56
2023/08/24 05:55:38;;;;;;;5.13;4.45;;;16.40;99.90;;;;;;5123282;27;20050;-58
2023/08/24 05:58:04;;;;;;;9.00;5.93;;;16.40;99.90;;;;;;5128151;27;20184;-56
2023/08/24 06:00:30;;;;;;;12.05;5.55;;;16.40;99.90;;;;;;5106133;27;21286;-58
2023/08/24 06:02:55;;;;;;;6.85;5.40;;;16.40;99.90;;;;;;5108451;27;20043;-57
2023/08/24 06:05:21;;;;;;;7.20;5.97;;;16.50;99.90;;;;;;5121393;27;20752;-59
2023/08/24 06:07:48;;;;;;;8.40;6.03;;;16.60;99.90;;;;;;5117308;27;20051;-59
2023/08/24 06:10:13;;;;;;;7.65;5.95;;;16.70;99.90;;;;;;5123582;27;20542;-58
2023/08/24 06:12:39;;;;;;;8.48;6.50;;;16.90;99.90;;;;;;5124595;27;20046;-57
2023/08/24 06:15:07;;;;;;;9.75;5.88;;;17.10;99.90;;;;;;5126280;27;20055;-62
2023/08/24 06:17:35;;;;;;;7.45;5.47;;;17.20;99.90;;;;;;5122511;27;20046;-57
2023/08/24 06:20:05;;;;;;;10.60;5.72;;;17.40;99.90;;;;;;5126973;27;20062;-58
2023/08/24 06:22:30;;;;;;;6.88;5.18;;;17.60;99.90;;;;;;5124533;27;20078;-58
2023/08/24 06:24:59;;;;;;;7.78;5.03;;;17.80;99.90;;;;;;5125804;27;20469;-57
2023/08/24 06:27:28;;;;;;;8.50;5.20;;;18.00;99.90;;;;;;5126883;27;20061;-57
2023/08/24 06:29:54;;;;;;;7.65;4.82;;;18.10;99.90;;;;;;5124440;27;20051;-57
2023/08/24 06:32:20;;;;;;;9.50;5.63;;;18.30;99.90;;;;;;5131797;27;20051;-57
2023/08/24 06:34:45;;;;;;;6.45;4.25;;;18.50;99.90;;;;;;5128601;27;20162;-57
2023/08/24 06:37:11;;;;;;;8.75;4.63;;;18.70;99.90;;;;;;5106718;27;20051;-57
2023/08/24 06:39:37;;;;;;;8.98;4.95;;;18.80;99.90;;;;;;5126738;27;20051;-58
2023/08/24 06:42:03;;;;;;;8.30;5.47;;;18.90;99.90;;;;;;5124937;27;20050;-57
2023/08/24 06:44:29;;;;;;;14.43;6.10;;;19.10;99.90;;;;;;5126578;27;20069;-57
2023/08/24 06:46:55;;;;;;;8.63;4.72;;;19.20;99.90;;;;;;5123925;27;20059;-57
2023/08/24 06:49:21;;;;;;;6.47;4.50;;;19.40;99.90;;;;;;5128447;27;20062;-56
2023/08/24 06:51:46;;;;;;;7.82;4.55;;;19.50;99.90;;;;;;5124570;27;20043;-57
2023/08/24 06:54:14;;;;;;;6.90;4.22;;;19.70;99.90;;;;;;5124921;27;20047;-57
2023/08/24 06:56:40;;;;;;;8.25;4.55;;;19.80;99.90;;;;;;5125508;27;20141;-58
2023/08/24 06:59:05;;;;;;;8.43;4.10;;;19.90;99.90;;;;;;5107012;27;20117;-58
2023/08/24 07:01:31;;;;;;;8.23;4.57;;;20.10;99.90;;;;;;5125211;27;20051;-58
2023/08/24 07:03:57;;;;;;;8.30;4.53;;;20.30;99.90;;;;;;5129159;27;20240;-58
2023/08/24 07:06:24;;;;;;;7.03;4.13;;;20.50;99.90;;;;;;5131179;27;20208;-57
2023/08/24 07:08:50;;;;;;;7.13;5.15;;;20.70;99.90;;;;;;5128684;27;20784;-58
2023/08/24 07:11:17;;;;;;;9.07;5.60;;;20.70;99.90;;;;;;5132082;27;20141;-57
2023/08/24 07:13:43;;;;;;;7.13;4.95;;;20.80;99.90;;;;;;5130524;27;20039;-58
2023/08/24 07:16:08;;;;;;;7.85;5.85;;;21.00;99.90;;;;;;5126106;27;20595;-57
2023/08/24 07:18:37;;;;;;;7.85;5.47;;;20.90;99.90;;;;;;5134067;27;20054;-56
2023/08/24 07:21:03;;;;;;;8.13;5.65;;;21.20;99.90;;;;;;5128099;27;20055;-57
2023/08/24 07:23:28;;;;;;;6.55;5.88;;;21.30;99.90;;;;;;5132650;27;20448;-57
2023/08/24 07:25:54;;;;;;;9.20;6.15;;;21.40;99.90;;;;;;5128958;27;20055;-57
2023/08/24 07:28:20;;;;;;;11.57;6.30;;;21.40;99.90;;;;;;5128164;27;20503;-58
2023/08/24 07:30:45;;;;;;;13.05;6.03;;;21.60;99.90;;;;;;5134946;27;20404;-58
2023/08/24 07:33:11;;;;;;;7.45;4.80;;;21.80;99.90;;;;;;5125162;27;20096;-57
2023/08/24 07:35:37;;;;;;;10.57;6.25;;;21.80;99.90;;;;;;5113352;27;20060;-57
2023/08/24 07:38:04;;;;;;;11.35;5.45;;;22.10;99.90;;;;;;5130496;27;20638;-58
2023/08/24 07:40:30;;;;;;;9.30;5.03;;;22.20;99.90;;;;;;5131424;27;20131;-60
2023/08/24 07:42:56;;;;;;;8.63;5.05;;;22.20;99.90;;;;;;5129123;27;20559;-58
2023/08/24 07:45:25;;;;;;;8.90;5.28;;;22.30;99.90;;;;;;5118457;27;20058;-59
2023/08/24 07:47:51;;;;;;;8.35;5.10;;;22.30;99.90;;;;;;5133656;27;20111;-60
2023/08/24 07:50:16;;;;;;;8.30;5.35;;;22.60;99.90;;;;;;5091226;27;20051;-57
2023/08/24 07:52:42;;;;;;;9.88;5.63;;;22.80;99.90;;;;;;5131640;27;20053;-57
2023/08/24 07:55:09;;;;;;;7.95;4.40;;;22.80;99.90;;;;;;5126147;27;20097;-56
2023/08/24 07:57:36;;;;;;;9.00;4.97;;;22.80;99.90;;;;;;5131811;27;20410;-57
2023/08/24 08:02:28;;;;;;;11.77;4.90;;;23.20;99.90;;;;;;5133156;27;20085;-57
2023/08/24 08:04:58;;;;;;;8.57;4.53;;;23.40;99.90;;;;;;5129135;27;20512;-57
2023/08/24 08:07:27;;;;;;;8.43;4.22;;;23.70;99.90;;;;;;5124127;27;21542;-57
2023/08/24 08:09:52;;;;;;;10.30;4.03;;;23.90;99.90;;;;;;5134457;27;20050;-57
2023/08/24 08:12:18;;;;;;;5.43;3.28;;;24.30;99.90;;;;;;5126087;27;20496;-64
2023/08/24 08:14:44;;;;;;;6.22;3.20;;;24.70;99.90;;;;;;5129521;27;20054;-64
2023/08/24 08:17:09;;;;;;;9.05;4.05;;;24.80;99.90;;;;;;5130062;27;20492;-58
2023/08/24 08:19:37;;;;;;;4.47;2.53;;;25.00;99.90;;;;;;5136318;27;20054;-60
2023/08/24 08:22:04;;;;;;;7.93;3.00;;;25.30;99.90;;;;;;5131705;27;20051;-58
2023/08/24 08:24:29;;;;;;;6.45;2.88;;;25.40;99.90;;;;;;5089526;27;1170894;-62
2023/08/24 08:26:55;;;;;;;6.68;2.78;;;25.60;99.90;;;;;;5129049;27;20051;-58
2023/08/24 08:29:21;;;;;;;5.75;2.83;;;25.50;99.90;;;;;;5126397;27;20070;-58
2023/08/24 08:31:46;;;;;;;7.22;2.83;;;25.60;99.90;;;;;;5101945;27;20082;-59
2023/08/24 08:34:12;;;;;;;8.85;3.70;;;25.80;99.90;;;;;;5123133;27;20055;-58
2023/08/24 08:36:38;;;;;;;4.40;2.70;;;26.20;99.90;;;;;;5134655;27;20051;-58
2023/08/24 08:39:04;;;;;;;3.30;2.63;;;25.90;99.90;;;;;;5116148;27;20054;-58
2023/08/24 08:41:34;;;;;;;4.22;2.97;;;26.60;99.90;;;;;;5126468;27;21352;-59
2023/08/24 08:44:03;;;;;;;5.82;2.75;;;26.70;99.90;;;;;;5132244;27;20136;-59
2023/08/24 08:46:29;;;;;;;2.72;2.33;;;26.80;99.90;;;;;;5123663;27;20137;-58
2023/08/24 08:48:55;;;;;;;4.32;2.60;;;27.40;99.90;;;;;;5130138;27;20062;-59
2023/08/24 08:51:21;;;;;;;3.10;2.78;;;27.00;99.90;;;;;;5105260;27;20074;-59
2023/08/24 08:53:46;;;;;;;4.28;2.53;;;27.20;99.90;;;;;;5130267;27;20184;-59
2023/08/24 08:56:12;;;;;;;2.95;2.33;;;27.30;99.90;;;;;;5126134;27;20595;-58
2023/08/24 08:58:39;;;;;;;3.63;2.58;;;27.70;99.90;;;;;;5120432;27;20057;-59
2023/08/24 09:01:06;;;;;;;24.98;3.38;;;28.20;99.90;;;;;;5129763;27;20516;-58
2023/08/24 09:03:33;;;;;;;6.68;3.58;;;28.50;99.90;;;;;;5135779;27;20146;-59
2023/08/24 09:05:58;;;;;;;6.95;3.08;;;28.60;99.90;;;;;;5141857;27;20051;-59
2023/08/24 09:08:26;;;;;;;7.63;2.78;;;28.70;99.90;;;;;;5125863;27;20184;-59
2023/08/24 09:10:52;;;;;;;4.53;2.45;;;28.70;99.90;;;;;;5113350;27;20060;-59
2023/08/24 09:13:17;;;;;;;4.55;3.40;;;28.50;99.90;;;;;;5106337;27;20050;-59
2023/08/24 09:15:43;;;;;;;4.95;3.13;;;28.60;99.90;;;;;;5104070;27;20066;-59
2023/08/24 09:18:09;;;;;;;3.47;2.67;;;28.40;99.90;;;;;;5103400;27;20143;-58
2023/08/24 09:20:35;;;;;;;4.45;2.45;;;28.60;99.90;;;;;;5111905;27;20527;-59
2023/08/24 09:23:04;;;;;;;4.40;2.55;;;28.20;99.90;;;;;;5103157;27;20420;-60
2023/08/24 09:25:30;;;;;;;5.55;2.80;;;27.80;99.90;;;;;;5119902;27;20053;-60
2023/08/24 09:28:08;;;;;;;4.95;2.45;;;28.10;99.90;;;;;;5131554;27;20059;-59
2023/08/24 09:30:37;;;;;;;5.25;2.53;;;28.10;99.90;;;;;;5112099;27;20115;-59
2023/08/24 09:33:08;;;;;;;4.95;2.60;;;28.10;99.90;;;;;;5129171;27;20055;-59
2023/08/24 09:35:36;;;;;;;6.65;3.80;;;27.80;99.90;;;;;;5116193;27;20138;-60
2023/08/24 09:38:20;;;;;;;5.03;2.75;;;27.60;99.90;;;;;;5133973;27;20108;-60
2023/08/24 09:40:50;;;;;;;4.38;3.13;;;27.60;99.90;;;;;;5130744;27;20149;-59
2023/08/24 09:43:17;;;;;;;6.95;3.65;;;27.50;99.90;;;;;;5113744;27;20047;-59
2023/08/24 09:45:53;;;;;;;10.23;3.28;;;27.40;99.90;;;;;;5123119;27;20063;-60
2023/08/24 09:48:21;;;;;;;5.43;3.33;;;27.40;99.90;;;;;;5126121;27;20058;-60
2023/08/24 09:50:51;;;;;;;6.10;3.42;;;27.30;99.90;;;;;;5130589;27;20058;-59
2023/08/24 09:53:22;;;;;;;6.70;2.78;;;27.20;99.90;;;;;;5105267;27;20062;-60
2023/08/24 09:56:03;;;;;;;5.75;3.08;;;27.10;99.90;;;;;;5106823;27;20513;-60
2023/08/24 09:58:30;;;;;;;6.00;3.35;;;27.00;99.90;;;;;;5111865;27;20078;-59
2023/08/24 10:00:56;;;;;;;7.95;3.78;;;26.80;99.90;;;;;;5106539;27;20056;-60
2023/08/24 10:03:25;;;;;;;4.10;3.47;;;27.00;99.90;;;;;;5094162;27;20058;-59
2023/08/24 10:08:46;;;;;;;6.75;3.97;;;26.40;99.90;;;;;;5117949;27;20047;-60
2023/08/24 10:11:17;;;;;;;10.27;3.77;;;26.70;99.90;;;;;;5120657;27;20153;-59
2023/08/24 10:14:03;;;;;;;5.65;3.20;;;26.70;99.90;;;;;;5123510;27;20329;-61
2023/08/24 10:16:30;;;;;;;3.90;3.03;;;26.30;99.90;;;;;;5098001;27;20922;-60
2023/08/24 10:18:55;;;;;;;4.70;3.08;;;26.40;99.90;;;;;;5121251;27;20156;-59
2023/08/24 10:21:25;;;;;;;6.18;2.92;;;26.30;99.90;;;;;;5110564;27;20081;-59
2023/08/24 10:23:53;;;;;;;5.25;3.60;;;26.10;99.90;;;;;;5126280;27;20120;-59
2023/08/24 10:26:20;;;;;;;5.65;3.28;;;26.20;99.90;;;;;;5122661;27;20065;-61
2023/08/24 10:28:47;;;;;;;8.20;3.53;;;26.10;99.90;;;;;;5118041;27;20051;-60
2023/08/24 10:31:13;;;;;;;7.63;3.65;;;26.10;99.90;;;;;;5120812;27;20061;-59
2023/08/24 10:33:40;;;;;;;10.43;4.03;;;25.90;99.90;;;;;;5104180;27;20054;-59
2023/08/24 10:36:06;;;;;;;4.28;2.85;;;25.90;99.90;;;;;;5112905;27;20053;-63
2023/08/24 10:38:43;;;;;;;4.90;3.25;;;25.80;99.90;;;;;;5118615;27;20631;-58
2023/08/24 10:41:13;;;;;;;6.05;3.50;;;25.60;99.90;;;;;;5123644;27;20055;-59
2023/08/24 10:43:40;;;;;;;4.53;3.70;;;25.50;99.90;;;;;;5104379;27;20059;-59
2023/08/24 10:46:18;;;;;;;10.50;4.60;;;25.50;99.90;;;;;;5100726;28;20058;-57
2023/08/24 10:48:44;;;;;;;5.38;3.60;;;25.20;99.90;;;;;;5118070;27;20058;-59
2023/08/24 10:51:21;;;;;;;5.20;3.30;;;25.20;99.90;;;;;;5111211;27;20055;-59
2023/08/24 10:54:04;;;;;;;9.35;5.20;;;25.20;99.90;;;;;;5124053;27;20138;-59
2023/08/24 10:56:35;;;;;;;4.93;3.28;;;25.10;99.90;;;;;;5099197;28;20887;-59
2023/08/24 10:59:11;;;;;;;5.93;4.40;;;25.00;99.90;;;;;;5123896;27;20058;-59
2023/08/24 11:01:39;;;;;;;6.72;3.70;;;25.00;99.90;;;;;;5120421;27;20055;-59
2023/08/24 11:04:06;;;;;;;12.18;4.45;;;25.00;99.90;;;;;;5098928;27;20052;-59
2023/08/24 11:06:33;;;;;;;8.32;4.10;;;25.10;99.90;;;;;;5126264;27;20174;-59
2023/08/24 11:09:03;;;;;;;10.68;4.88;;;25.20;99.90;;;;;;5099614;28;20825;-59
2023/08/24 11:11:29;;;;;;;4.75;2.80;;;25.30;99.90;;;;;;5124213;27;20051;-59
2023/08/24 11:14:03;;;;;;;7.38;4.28;;;25.50;99.90;;;;;;5125958;27;20109;-59
2023/08/24 11:16:39;;;;;;;7.05;3.60;;;25.40;99.90;;;;;;5116028;27;20138;-59
2023/08/24 11:19:06;;;;;;;7.82;4.05;;;25.60;99.90;;;;;;5106564;27;20512;-59
2023/08/24 11:21:34;;;;;;;6.47;3.65;;;25.60;99.90;;;;;;5111092;27;20059;-59
2023/08/24 11:26:29;;;;;;;6.43;3.10;;;25.90;99.90;;;;;;5115438;27;20484;-58
2023/08/24 11:28:57;;;;;;;7.30;3.70;;;26.20;99.90;;;;;;5121461;27;20992;-58
2023/08/24 11:31:23;;;;;;;4.72;3.47;;;26.40;99.90;;;;;;5129272;27;20050;-58
2023/08/24 11:33:57;;;;;;;8.95;3.75;;;26.50;99.90;;;;;;5130562;27;20361;-60
2023/08/24 11:36:23;;;;;;;5.70;4.45;;;26.70;99.90;;;;;;5122655;27;20058;-60
2023/08/24 11:38:52;;;;;;;6.70;4.68;;;26.70;99.90;;;;;;5106858;27;20051;-59
2023/08/24 11:41:19;;;;;;;6.70;3.75;;;26.90;99.90;;;;;;5114014;27;20470;-60
2023/08/24 11:43:47;;;;;;;4.47;3.63;;;27.20;99.90;;;;;;5105081;28;20131;-59
2023/08/24 11:46:15;;;;;;;4.15;3.10;;;27.00;99.90;;;;;;5114981;27;20054;-59
2023/08/24 11:48:41;;;;;;;6.13;4.10;;;27.00;99.90;;;;;;5123703;27;20087;-59
2023/08/24 11:51:12;;;;;;;4.88;3.53;;;27.10;99.90;;;;;;5113711;27;20138;-59
2023/08/24 11:53:42;;;;;;;5.82;3.95;;;26.90;99.90;;;;;;5135668;27;20091;-59
2023/08/24 11:56:10;;;;;;;4.50;3.05;;;27.20;99.90;;;;;;5120224;27;20056;-58
2023/08/24 11:58:40;;;;;;;6.88;3.78;;;27.80;99.90;;;;;;5116640;27;20063;-59
2023/08/24 12:01:11;;;;;;;11.38;3.95;;;28.00;99.90;;;;;;5128391;27;20058;-62
2023/08/24 12:03:38;;;;;;;5.38;3.40;;;28.00;99.90;;;;;;5128771;27;20054;-60
2023/08/24 12:06:14;;;;;;;6.72;3.72;;;28.50;99.90;;;;;;5127070;27;20082;-58
2023/08/24 12:08:41;;;;;;;9.27;4.63;;;28.90;99.90;;;;;;5098691;27;20063;-59
2023/08/24 12:11:16;;;;;;;5.80;4.28;;;29.00;99.90;;;;;;5122589;27;20059;-58
2023/08/24 12:13:53;;;;;;;5.05;3.92;;;28.70;99.90;;;;;;5097669;27;20059;-60
2023/08/24 12:16:20;;;;;;;6.03;3.95;;;28.70;99.90;;;;;;5127278;27;20055;-59
2023/08/24 12:18:54;;;;;;;6.75;4.70;;;28.50;99.90;;;;;;5131806;27;20770;-60
2023/08/24 12:21:21;;;;;;;6.97;4.47;;;28.40;99.90;;;;;;5102995;27;20102;-60
2023/08/24 12:26:29;;;;;;;7.85;4.57;;;28.20;99.90;;;;;;5112641;27;21268;-59
2023/08/24 12:31:29;;;;;;;5.85;3.78;;;28.30;99.90;;;;;;5134550;27;20412;-60
2023/08/24 12:36:25;;;;;;;5.15;4.38;;;28.30;99.90;;;;;;5106116;27;20112;-62
2023/08/24 12:38:51;;;;;;;6.18;3.92;;;28.20;99.90;;;;;;5104441;27;20056;-59
2023/08/24 12:41:16;;;;;;;5.82;4.10;;;28.20;99.90;;;;;;5109491;27;20624;-58
2023/08/24 12:43:42;;;;;;;6.00;3.97;;;28.10;99.90;;;;;;5085883;27;1157109;-59
2023/08/24 12:46:08;;;;;;;7.30;4.63;;;28.10;99.90;;;;;;5114527;27;20522;-58
2023/08/24 12:48:33;;;;;;;10.40;4.63;;;27.90;99.90;;;;;;5117956;27;20115;-64
2023/08/24 12:50:59;;;;;;;5.63;3.97;;;28.10;99.90;;;;;;5122143;27;20063;-59
2023/08/24 12:53:49;;;;;;;4.65;4.15;;;28.10;99.90;;;;;;5097393;27;20104;-60
2023/08/24 12:56:15;;;;;;;6.43;4.50;;;28.00;99.90;;;;;;5126285;27;20063;-60
2023/08/24 12:58:41;;;;;;;6.93;5.38;;;27.90;99.90;;;;;;5122142;27;20423;-60
2023/08/24 13:01:07;;;;;;;7.57;4.30;;;27.80;99.90;;;;;;5113904;27;20140;-64
2023/08/24 13:03:33;;;;;;;7.25;4.97;;;27.70;99.90;;;;;;5129861;27;20054;-65
2023/08/24 13:05:59;;;;;;;4.05;3.65;;;27.60;99.90;;;;;;5121855;27;20152;-64